Time,TemperatureF,DewpointF,PressureIn,WindDirection,WindDirectionDegrees,WindSpeedMPH,WindSpeedGustMPH,Humidity,HourlyPrecipIn,Conditions,Clouds,dailyrainin,SoftwareType,DateUTC
2013-12-17 00:22:00,31.0,28.0,-100.00,SE,130,0.0,2.0,90,0.00,,,-99.99,,2013-12-17 05:22:00,
2013-12-17 00:52:00,31.0,29.0,-100.00,West,275,0.0,1.0,91,0.00,,,-99.99,,2013-12-17 05:52:00,
2013-12-17 01:22:00,31.0,29.0,-100.00,WNW,285,0.0,1.0,91,0.00,,,-99.99,,2013-12-17 06:22:00,
2013-12-17 01:52:00,32.0,30.0,-100.00,NE,45,0.0,0.0,90,0.00,,,-99.99,,2013-12-17 06:52:00,
2013-12-17 02:21:00,33.0,31.0,-100.00,ENE,65,0.0,1.0,92,0.00,,,-99.99,,2013-12-17 07:21:00,
2013-12-17 02:52:00,33.0,31.0,-100.00,East,95,0.0,2.0,91,0.00,,,-99.99,,2013-12-17 07:52:00,
2013-12-17 03:22:00,33.0,30.0,-100.00,East,85,0.0,2.0,90,0.00,,,-99.99,,2013-12-17 08:22:00,
2013-12-17 03:52:00,35.0,31.0,-100.00,North,355,0.0,1.0,87,0.00,,,-99.99,,2013-12-17 08:52:00,
2013-12-17 04:22:00,37.0,34.0,-100.00,ENE,70,0.0,2.0,88,0.00,,,-99.99,,2013-12-17 09:22:00,
2013-12-17 04:53:00,37.0,33.0,-100.00,ESE,105,0.0,0.0,88,0.00,,,-99.99,,2013-12-17 09:53:00,
2013-12-17 05:23:00,37.0,33.0,-100.00,SE,140,0.0,0.0,85,0.00,,,-99.99,,2013-12-17 10:23:00,
2013-12-17 05:53:00,39.0,34.0,-100.00,NW,315,0.0,2.0,82,0.00,,,-99.99,,2013-12-17 10:53:00,
2013-12-17 06:22:00,40.0,35.0,-100.00,WNW,290,1.0,3.0,79,0.00,,,-99.99,,2013-12-17 11:22:00,
2013-12-17 06:52:00,39.0,33.0,-100.00,West,275,1.0,4.0,78,0.00,,,-99.99,,2013-12-17 11:52:00,
2013-12-17 07:22:00,42.0,34.0,-100.00,WNW,300,1.0,4.0,74,0.00,,,-99.99,,2013-12-17 12:22:00,
2013-12-17 07:52:00,41.0,35.0,-100.00,WNW,300,3.0,6.0,77,0.00,,,-99.99,,2013-12-17 12:52:00,
2013-12-17 08:22:00,42.0,35.0,-100.00,WNW,295,2.0,6.0,75,0.00,,,-99.99,,2013-12-17 13:22:00,
2013-12-17 08:52:00,42.0,35.0,-100.00,NW,320,2.0,6.0,76,0.00,,,-99.99,,2013-12-17 13:52:00,
2013-12-17 09:21:00,41.0,35.0,-100.00,NW,310,4.0,6.0,76,0.00,,,-99.99,,2013-12-17 14:21:00,
2013-12-17 09:52:00,42.0,35.0,-100.00,NW,305,4.0,8.0,76,0.00,,,-99.99,,2013-12-17 14:52:00,
2013-12-17 10:22:00,41.0,34.0,-100.00,NW,305,6.0,11.0,74,0.00,,,-99.99,,2013-12-17 15:22:00,
2013-12-17 10:53:00,41.0,34.0,-100.00,WNW,300,1.0,7.0,76,0.00,,,-99.99,,2013-12-17 15:53:00,
2013-12-17 11:23:00,40.0,34.0,-100.00,NW,310,2.0,9.0,76,0.00,,,-99.99,,2013-12-17 16:23:00,
2013-12-17 12:23:00,41.0,34.0,-100.00,NW,320,1.0,4.0,75,0.00,,,-99.99,,2013-12-17 17:23:00,
2013-12-17 12:53:00,42.0,34.0,-100.00,NW,320,2.0,6.0,74,0.00,,,-99.99,,2013-12-17 17:53:00,
2013-12-17 13:21:00,41.0,34.0,-100.00,NW,310,5.0,9.0,74,0.00,,,-99.99,,2013-12-17 18:21:00,
2013-12-17 13:52:00,41.0,34.0,-100.00,NW,310,4.0,9.0,75,0.00,,,-99.99,,2013-12-17 18:52:00,
2013-12-17 14:22:00,41.0,33.0,-100.00,WNW,300,6.0,9.0,72,0.00,,,-99.99,,2013-12-17 19:22:00,
2013-12-17 14:52:00,41.0,33.0,-100.00,NW,320,6.0,9.0,72,0.00,,,-99.99,,2013-12-17 19:52:00,
2013-12-17 15:22:00,41.0,33.0,-100.00,WNW,295,3.0,8.0,73,0.00,,,-99.99,,2013-12-17 20:22:00,
2013-12-17 15:52:00,41.0,33.0,-100.00,WNW,300,4.0,7.0,72,0.00,,,-99.99,,2013-12-17 20:52:00,
2013-12-17 16:22:00,41.0,32.0,-100.00,NW,310,5.0,9.0,71,0.00,,,-99.99,,2013-12-17 21:22:00,
2013-12-17 16:53:00,40.0,31.0,-100.00,WNW,290,4.0,9.0,70,0.00,,,-99.99,,2013-12-17 21:53:00,
2013-12-17 17:23:00,39.0,31.0,-100.00,NW,315,7.0,12.0,73,0.00,,,-99.99,,2013-12-17 22:23:00,
2013-12-17 17:53:00,38.0,31.0,-100.00,NNW,335,2.0,7.0,74,0.00,,,-99.99,,2013-12-17 22:53:00,
2013-12-17 18:22:00,38.0,29.0,-100.00,WNW,290,4.0,13.0,71,0.00,,,-99.99,,2013-12-17 23:22:00,
2013-12-17 18:53:00,37.0,27.0,-100.00,WSW,250,6.0,14.0,69,0.00,,,-99.99,,2013-12-17 23:53:00,
2013-12-17 19:52:00,35.0,26.0,-100.00,NW,315,4.0,10.0,70,0.00,,,-99.99,,2013-12-18 00:52:00,
2013-12-17 20:22:00,35.0,26.0,-100.00,West,265,4.0,7.0,71,0.00,,,-99.99,,2013-12-18 01:22:00,
2013-12-17 20:52:00,35.0,27.0,-100.00,WNW,295,4.0,9.0,71,0.00,,,-99.99,,2013-12-18 01:52:00,
2013-12-17 21:22:00,34.0,26.0,-100.00,WSW,250,5.0,9.0,71,0.00,,,-99.99,,2013-12-18 02:22:00,
2013-12-17 21:52:00,34.0,26.0,-100.00,WSW,250,6.0,9.0,72,0.00,,,-99.99,,2013-12-18 02:52:00,
2013-12-17 22:22:00,34.0,26.0,-100.00,WSW,255,7.0,12.0,70,0.00,,,-99.99,,2013-12-18 03:22:00,
2013-12-17 22:53:00,34.0,25.0,-100.00,WNW,300,4.0,12.0,69,0.00,,,-99.99,,2013-12-18 03:53:00,
2013-12-17 23:23:00,34.0,25.0,-100.00,WNW,290,6.0,12.0,69,0.00,,,-99.99,,2013-12-18 04:23:00,
2013-12-17 23:52:00,34.0,24.0,-100.00,WSW,245,6.0,10.0,67,0.00,,,-99.99,,2013-12-18 04:52:00,